Time;durP1;ratioP1;P1;durP2;ratioP2;P2;SDS_P1;SDS_P2;PMS_P1;PMS_P2;Temp;Humidity;BMP_temperature;BMP_pressure;BME280_temperature;BME280_humidity;BME280_pressure;Samples;Min_cycle;Max_cycle;Signal;HPM_P1;HPM_P2
2021/07/29 00:00:32;;;;;;;10.68;4.60;;;;;;;25.62;49.92;100330.94;4991527;28;20046;-66
2021/07/29 00:02:58;;;;;;;10.10;3.95;;;;;;;25.48;50.47;100311.94;4992015;28;20022;-63
2021/07/29 00:05:23;;;;;;;7.68;4.45;;;;;;;25.22;51.24;100317.88;4990961;28;20049;-64
2021/07/29 00:07:52;;;;;;;13.70;4.60;;;;;;;25.41;50.98;100313.00;4991290;28;20033;-67
2021/07/29 00:10:18;;;;;;;10.35;4.20;;;;;;;25.43;50.93;100313.84;4991067;28;20037;-66
2021/07/29 00:12:44;;;;;;;8.82;4.50;;;;;;;25.50;50.33;100318.91;4991550;28;20027;-66
2021/07/29 00:15:12;;;;;;;12.70;4.50;;;;;;;25.61;50.23;100317.72;4991343;28;20165;-68
2021/07/29 00:20:27;;;;;;;13.45;4.50;;;;;;;25.68;49.46;100298.16;4991439;28;20113;-65
2021/07/29 00:22:57;;;;;;;9.30;4.05;;;;;;;25.94;49.78;100321.19;4991275;28;20026;-68
2021/07/29 00:25:24;;;;;;;7.85;4.30;;;;;;;25.66;50.48;100321.13;4973787;28;20496;-70
2021/07/29 00:27:51;;;;;;;13.32;5.03;;;;;;;25.29;51.67;100312.38;4991249;28;20030;-64
2021/07/29 00:30:18;;;;;;;11.32;4.50;;;;;;;25.15;52.48;100319.81;4990703;28;20481;-64
2021/07/29 00:32:44;;;;;;;8.30;4.18;;;;;;;25.18;51.92;100309.16;4991504;28;20393;-67
2021/07/29 00:35:15;;;;;;;7.65;4.38;;;;;;;25.31;51.46;100313.22;4991345;28;20033;-68
2021/07/29 00:37:49;;;;;;;8.27;4.30;;;;;;;25.72;50.45;100323.59;4991310;28;20120;-68
2021/07/29 00:40:16;;;;;;;9.75;4.50;;;;;;;25.56;51.27;100322.28;4991239;28;20081;-68
2021/07/29 00:42:42;;;;;;;12.15;4.55;;;;;;;25.52;51.71;100316.22;4991021;28;20484;-68
2021/07/29 00:45:08;;;;;;;11.68;4.68;;;;;;;25.55;52.00;100313.50;4991294;28;20034;-67
2021/07/29 00:47:35;;;;;;;8.55;4.45;;;;;;;25.79;51.16;100303.13;4991139;28;20030;-68
2021/07/29 00:50:02;;;;;;;9.40;4.30;;;;;;;25.81;51.33;100285.47;4991055;28;20374;-66
2021/07/29 00:52:28;;;;;;;10.00;4.40;;;;;;;26.03;51.28;100309.47;4970284;28;20043;-70
2021/07/29 00:54:53;;;;;;;10.05;4.40;;;;;;;25.87;51.30;100279.09;4991070;28;20042;-67
2021/07/29 00:57:22;;;;;;;12.80;4.43;;;;;;;26.07;51.53;100305.88;4975797;28;20477;-68
2021/07/29 00:59:48;;;;;;;8.73;4.35;;;;;;;25.93;52.22;100305.38;4994493;28;20058;-67
2021/07/29 01:02:14;;;;;;;8.23;4.38;;;;;;;25.77;52.68;100310.22;4994658;28;20105;-67
2021/07/29 01:04:40;;;;;;;9.80;4.30;;;;;;;25.46;53.37;100292.59;4977053;28;20022;-68
2021/07/29 01:07:05;;;;;;;6.93;4.32;;;;;;;25.32;53.89;100295.59;4994216;28;20033;-66
2021/07/29 01:09:31;;;;;;;10.93;4.70;;;;;;;25.14;54.50;100303.09;4994005;28;20448;-64
2021/07/29 01:11:56;;;;;;;8.48;4.80;;;;;;;24.92;55.72;100301.91;4994268;28;20030;-68
2021/07/29 01:14:22;;;;;;;9.02;4.50;;;;;;;24.94;55.22;100303.63;4994503;28;20405;-65
2021/07/29 01:16:47;;;;;;;13.10;5.38;;;;;;;25.11;54.54;100302.31;4994418;28;20073;-69
2021/07/29 01:19:13;;;;;;;9.68;4.88;;;;;;;25.10;54.65;100300.59;4993653;28;20467;-66
2021/07/29 01:21:39;;;;;;;13.35;4.53;;;;;;;24.79;55.05;100273.19;4993934;28;20022;-68
2021/07/29 01:24:06;;;;;;;11.35;5.03;;;;;;;24.87;56.23;100309.94;4993837;28;20481;-68
2021/07/29 01:26:32;;;;;;;6.43;4.10;;;;;;;24.88;55.86;100316.97;4993801;28;20027;-69
2021/07/29 01:28:59;;;;;;;11.60;4.45;;;;;;;24.79;55.93;100319.84;4994007;28;20026;-69
2021/07/29 01:31:28;;;;;;;8.88;4.07;;;;;;;24.70;56.28;100318.31;4994174;28;20035;-67
2021/07/29 01:33:55;;;;;;;12.30;4.63;;;;;;;24.62;56.15;100312.28;4993875;28;20121;-64
2021/07/29 01:36:21;;;;;;;8.30;4.50;;;;;;;24.34;56.59;100286.56;4993954;28;20030;-66
2021/07/29 01:38:46;;;;;;;10.98;4.57;;;;;;;24.38;56.46;100319.88;4993460;28;20424;-65
2021/07/29 01:41:12;;;;;;;8.65;4.78;;;;;;;24.30;56.43;100329.72;4993748;28;20023;-65
2021/07/29 01:43:37;;;;;;;12.85;4.75;;;;;;;24.07;56.85;100312.63;4993685;28;20030;-65
2021/07/29 01:46:02;;;;;;;7.40;4.97;;;;;;;24.00;56.90;100314.56;4993890;28;20516;-68
2021/07/29 01:48:30;;;;;;;7.22;5.20;;;;;;;23.99;57.41;100346.19;4993495;28;20032;-68
2021/07/29 01:50:55;;;;;;;8.65;5.30;;;;;;;23.90;57.65;100341.94;4993709;28;20160;-67
2021/07/29 01:53:21;;;;;;;9.60;5.25;;;;;;;23.78;58.19;100329.06;4993976;28;20058;-69
2021/07/29 01:55:48;;;;;;;8.27;5.18;;;;;;;23.77;58.46;100343.13;4992740;28;20050;-69
2021/07/29 01:58:15;;;;;;;14.25;5.25;;;;;;;23.67;58.94;100340.66;4993769;28;20044;-66
2021/07/29 02:00:44;;;;;;;9.88;5.07;;;;;;;23.63;58.98;100344.25;4976154;28;20035;-68
2021/07/29 02:03:10;;;;;;;;;;;;;;;23.48;59.58;100353.31;4993721;28;20109;-71
2021/07/29 02:05:35;;;;;;;9.80;4.90;;;;;;;23.47;59.60;100354.22;4993675;28;20357;-68
2021/07/29 02:08:01;;;;;;;9.00;5.38;;;;;;;23.49;59.56;100352.41;4992177;28;20384;-68
2021/07/29 02:10:27;;;;;;;9.13;4.75;;;;;;;23.23;59.55;100323.91;4993230;28;20034;-66
2021/07/29 02:12:54;;;;;;;9.98;5.72;;;;;;;23.48;59.27;100349.78;4993289;28;20042;-65
2021/07/29 02:15:20;;;;;;;9.77;5.25;;;;;;;23.46;59.01;100349.81;4993372;28;20084;-68
2021/07/29 02:17:45;;;;;;;10.75;4.75;;;;;;;23.56;59.13;100348.78;4993000;28;20030;-70
2021/07/29 02:20:11;;;;;;;11.90;4.78;;;;;;;23.59;59.30;100348.72;4992861;28;20031;-70
2021/07/29 02:22:37;;;;;;;7.50;4.90;;;;;;;23.55;59.28;100338.25;4992759;28;20564;-68
2021/07/29 02:25:05;;;;;;;11.25;5.10;;;;;;;23.56;58.74;100338.25;4993039;28;20034;-72
2021/07/29 02:27:31;;;;;;;11.10;4.78;;;;;;;23.65;58.65;100331.94;4992779;28;20057;-68
2021/07/29 02:29:57;;;;;;;11.05;4.72;;;;;;;23.76;58.58;100339.59;4992942;28;20057;-70
2021/07/29 02:32:23;;;;;;;10.50;5.00;;;;;;;23.90;58.49;100340.19;4993036;28;20073;-64
2021/07/29 02:34:49;;;;;;;12.80;5.60;;;;;;;24.14;58.26;100326.53;4992941;28;20022;-68
2021/07/29 02:37:15;;;;;;;13.38;4.90;;;;;;;24.18;57.82;100289.53;4992598;28;20035;-64
2021/07/29 02:39:40;;;;;;;16.17;4.57;;;;;;;24.52;57.21;100327.47;4992775;28;20022;-65
2021/07/29 02:42:09;;;;;;;9.38;4.60;;;;;;;24.64;57.15;100323.69;4992403;28;20033;-64
2021/07/29 02:44:35;;;;;;;12.40;4.93;;;;;;;24.69;56.71;100329.75;4958328;28;20031;-71
2021/07/29 02:47:01;;;;;;;20.83;4.93;;;;;;;24.82;56.20;100325.03;4984926;28;20530;-65
2021/07/29 02:49:27;;;;;;;16.65;4.88;;;;;;;24.90;54.82;100320.44;4992276;28;20029;-65
2021/07/29 02:51:52;;;;;;;21.08;5.97;;;;;;;25.00;54.48;100321.09;4992215;28;20405;-69
2021/07/29 02:54:18;;;;;;;12.73;4.78;;;;;;;24.97;54.42;100314.13;4992299;28;20425;-66
2021/07/29 02:56:43;;;;;;;13.07;4.80;;;;;;;24.97;53.78;100313.22;4992470;28;20018;-65
2021/07/29 02:59:09;;;;;;;15.20;5.03;;;;;;;25.02;53.97;100317.50;4992446;28;20026;-67
2021/07/29 03:01:34;;;;;;;16.55;5.53;;;;;;;24.83;53.66;100285.38;4992484;28;20022;-64
2021/07/29 03:04:00;;;;;;;13.35;5.20;;;;;;;25.09;53.65;100325.28;4992526;28;20041;-64
2021/07/29 03:06:25;;;;;;;9.00;4.60;;;;;;;25.04;53.52;100310.38;4992137;28;20105;-68
2021/07/29 03:08:50;;;;;;;12.10;4.95;;;;;;;24.98;52.57;100307.91;4992119;28;20034;-68
2021/07/29 03:11:16;;;;;;;12.95;4.75;;;;;;;24.83;52.96;100297.75;4974579;28;20033;-65
2021/07/29 03:13:42;;;;;;;20.00;5.78;;;;;;;24.79;53.67;100304.84;4992340;28;20034;-66
2021/07/29 03:16:07;;;;;;;20.08;5.15;;;;;;;24.52;53.85;100258.84;4992305;28;20462;-68
2021/07/29 03:18:34;;;;;;;10.95;4.97;;;;;;;24.85;53.58;100314.41;4991815;28;20038;-66
2021/07/29 03:20:59;;;;;;;19.08;5.60;;;;;;;24.86;52.65;100318.75;4991497;28;20023;-66
2021/07/29 03:23:26;;;;;;;15.50;5.30;;;;;;;24.86;52.65;100318.75;4992009;28;20382;-66
2021/07/29 03:25:53;;;;;;;19.90;5.40;;;;;;;24.88;52.77;100309.03;4992186;28;20090;-66
2021/07/29 03:28:19;;;;;;;16.67;5.10;;;;;;;24.62;53.65;100325.50;4992087;28;20425;-66
2021/07/29 03:30:45;;;;;;;23.52;5.40;;;;;;;24.61;54.12;100315.84;4991759;28;20022;-68
2021/07/29 03:33:11;;;;;;;11.50;5.20;;;;;;;24.70;54.06;100321.78;4991793;28;20030;-66
2021/07/29 03:35:37;;;;;;;23.23;5.40;;;;;;;24.66;52.51;100320.16;4991610;28;20026;-68
2021/07/29 03:38:04;;;;;;;17.85;5.45;;;;;;;24.55;52.00;100295.75;4992068;28;20022;-65
2021/07/29 03:40:29;;;;;;;20.13;5.18;;;;;;;24.80;51.07;100308.34;4979203;28;20458;-67
2021/07/29 03:42:56;;;;;;;12.48;5.03;;;;;;;24.92;51.08;100312.47;4990566;28;20057;-68
2021/07/29 03:45:22;;;;;;;13.25;4.95;;;;;;;24.92;50.42;100309.84;4991907;28;20100;-66
2021/07/29 03:47:48;;;;;;;17.48;5.20;;;;;;;24.69;53.23;100327.13;4991960;28;20126;-68
2021/07/29 03:50:14;;;;;;;11.43;5.28;;;;;;;24.58;54.33;100329.97;4991650;28;20532;-67
2021/07/29 03:52:39;;;;;;;17.90;4.68;;;;;;;24.50;54.18;100335.44;4990567;28;20027;-65
2021/07/29 03:55:07;;;;;;;9.68;4.80;;;;;;;24.06;54.83;100290.69;4991870;28;20132;-65
2021/07/29 03:57:33;;;;;;;14.32;5.20;;;;;;;23.94;55.80;100351.59;4991760;28;20026;-66
2021/07/29 04:00:01;;;;;;;16.40;5.53;;;;;;;23.71;56.44;100352.91;4992363;28;20033;-65
2021/07/29 04:02:26;;;;;;;14.30;5.35;;;;;;;23.14;57.51;100332.81;4991909;28;20026;-65
2021/07/29 04:04:51;;;;;;;15.95;5.47;;;;;;;23.15;58.29;100341.56;4991895;28;20034;-65
2021/07/29 04:07:17;;;;;;;21.38;5.55;;;;;;;23.22;58.86;100352.00;4992085;28;20026;-64
2021/07/29 04:09:42;;;;;;;16.90;5.53;;;;;;;23.03;59.07;100348.78;4991956;28;20034;-65
2021/07/29 04:12:08;;;;;;;14.27;5.15;;;;;;;22.53;59.61;100310.97;4991938;28;20085;-64
2021/07/29 04:14:34;;;;;;;15.45;5.45;;;;;;;22.53;60.42;100350.44;4991919;28;20026;-66
2021/07/29 04:16:59;;;;;;;15.30;5.32;;;;;;;22.38;61.19;100328.72;4987977;28;20027;-68
2021/07/29 04:19:25;;;;;;;15.68;5.63;;;;;;;22.12;61.93;100348.31;4991267;28;20034;-67
2021/07/29 04:21:50;;;;;;;10.02;5.32;;;;;;;22.52;60.39;100349.56;4991957;28;20026;-67
2021/07/29 04:24:17;;;;;;;19.05;5.53;;;;;;;22.77;59.50;100343.94;4991608;28;20041;-65
2021/07/29 04:26:43;;;;;;;16.60;6.18;;;;;;;23.05;58.43;100347.00;4991882;28;20031;-63
2021/07/29 04:29:09;;;;;;;11.50;5.88;;;;;;;23.13;58.07;100357.41;4991768;28;20113;-65
2021/07/29 04:31:35;;;;;;;24.27;6.75;;;;;;;23.05;58.49;100344.38;4992652;28;20032;-65
2021/07/29 04:34:00;;;;;;;21.05;6.05;;;;;;;23.07;58.91;100350.47;4995360;28;20032;-65
2021/07/29 04:36:25;;;;;;;19.50;6.35;;;;;;;22.98;57.33;100329.56;4995603;28;20374;-65
2021/07/29 04:38:51;;;;;;;13.93;5.65;;;;;;;23.01;57.77;100363.72;4995547;28;20026;-65
2021/07/29 04:41:16;;;;;;;19.75;7.00;;;;;;;23.09;57.92;100364.50;4995672;28;20045;-64
2021/07/29 04:43:42;;;;;;;21.75;6.97;;;;;;;23.01;57.71;100363.72;4995224;28;20026;-65
2021/07/29 04:46:07;;;;;;;13.27;5.60;;;;;;;22.88;57.45;100359.56;4995056;28;20077;-65
2021/07/29 04:48:33;;;;;;;21.23;7.10;;;;;;;23.01;58.10;100362.88;4995058;28;20022;-65
2021/07/29 04:51:02;;;;;;;16.52;6.53;;;;;;;23.03;57.49;100366.34;4995323;28;20027;-65
2021/07/29 04:53:27;;;;;;;14.05;6.70;;;;;;;22.94;57.23;100372.63;4995124;28;20485;-64
2021/07/29 04:55:53;;;;;;;13.45;5.80;;;;;;;23.13;57.36;100378.47;4995098;28;20046;-64
2021/07/29 04:58:18;;;;;;;13.40;6.18;;;;;;;23.14;57.07;100353.00;4995003;28;20029;-67
2021/07/29 05:00:44;;;;;;;22.23;6.20;;;;;;;23.32;57.69;100383.47;4995005;28;20029;-65
2021/07/29 05:03:09;;;;;;;15.75;5.68;;;;;;;23.40;57.12;100382.44;4994709;28;20029;-65
2021/07/29 05:05:34;;;;;;;18.88;5.85;;;;;;;23.57;56.73;100376.84;4995156;28;20030;-67
2021/07/29 05:08:00;;;;;;;26.02;6.35;;;;;;;23.64;56.18;100387.28;4995046;28;20489;-70
2021/07/29 05:10:25;;;;;;;12.68;6.07;;;;;;;23.74;56.24;100388.88;4994753;28;20030;-65
2021/07/29 05:12:51;;;;;;;14.43;5.05;;;;;;;23.84;55.00;100386.88;4994804;28;20033;-65
2021/07/29 05:15:16;;;;;;;13.60;5.50;;;;;;;23.99;55.53;100391.91;4994728;28;20092;-65
2021/07/29 05:17:42;;;;;;;13.45;5.72;;;;;;;24.03;54.35;100390.09;4994572;28;20031;-65
2021/07/29 05:20:10;;;;;;;12.73;4.65;;;;;;;24.13;52.28;100396.06;4977276;28;20037;-65
2021/07/29 05:22:35;;;;;;;18.35;5.35;;;;;;;24.28;53.28;100392.22;4994336;28;20105;-65
2021/07/29 05:25:01;;;;;;;21.17;5.45;;;;;;;24.37;54.13;100399.94;4994676;28;20125;-65
2021/07/29 05:27:26;;;;;;;11.48;4.50;;;;;;;24.49;52.34;100390.91;4994551;28;20023;-65
2021/07/29 05:29:51;;;;;;;13.82;4.85;;;;;;;24.59;52.92;100397.69;4994419;28;20022;-65
2021/07/29 05:32:17;;;;;;;10.93;4.70;;;;;;;24.56;52.84;100384.56;4994276;28;20023;-64
2021/07/29 05:34:42;;;;;;;15.35;5.50;;;;;;;24.61;51.74;100392.38;4994486;28;20023;-65
2021/07/29 05:37:08;;;;;;;15.43;5.18;;;;;;;24.72;52.81;100382.47;4993995;28;20032;-64
2021/07/29 05:39:33;;;;;;;20.27;4.90;;;;;;;24.79;51.50;100381.44;4994070;28;20029;-65
2021/07/29 05:42:00;;;;;;;21.88;6.10;;;;;;;24.88;52.40;100385.63;4994093;28;20488;-64
2021/07/29 05:44:26;;;;;;;9.00;4.07;;;;;;;24.98;52.13;100396.84;4994198;28;20045;-65
2021/07/29 05:46:51;;;;;;;18.55;6.63;;;;;;;25.15;52.42;100385.88;4994049;28;20026;-65
2021/07/29 05:49:17;;;;;;;16.27;5.45;;;;;;;25.20;50.49;100379.53;4994308;28;20034;-65
2021/07/29 05:51:42;;;;;;;13.27;5.20;;;;;;;25.28;51.46;100371.41;4994267;28;20022;-65
2021/07/29 05:54:08;;;;;;;8.60;4.95;;;;;;;25.21;51.01;100354.00;4994044;28;20055;-65
2021/07/29 05:56:33;;;;;;;8.18;4.40;;;;;;;25.52;50.13;100374.34;4994463;28;20026;-65
2021/07/29 05:58:59;;;;;;;10.40;4.35;;;;;;;25.71;50.06;100372.09;4994119;28;20443;-65
2021/07/29 06:01:24;;;;;;;7.43;4.68;;;;;;;25.70;49.78;100337.78;4993845;28;20018;-68
2021/07/29 06:03:49;;;;;;;7.30;4.32;;;;;;;26.00;48.12;100363.34;4993738;28;20030;-64
2021/07/29 06:06:15;;;;;;;7.30;4.72;;;;;;;26.19;46.67;100364.63;4993742;28;20034;-65
2021/07/29 06:08:40;;;;;;;10.27;5.10;;;;;;;26.27;46.84;100357.28;4994028;28;20033;-68
2021/07/29 06:11:06;;;;;;;13.93;5.00;;;;;;;26.34;47.28;100371.22;4993588;28;20030;-64
2021/07/29 06:13:31;;;;;;;12.75;4.68;;;;;;;26.10;45.85;100356.03;4993562;28;20038;-65
2021/07/29 06:16:05;;;;;;;14.77;4.55;;;;;;;26.00;44.82;100371.25;4993578;28;20023;-64
2021/07/29 06:18:33;;;;;;;13.98;4.57;;;;;;;26.03;45.79;100370.31;4943631;28;20201;-67
2021/07/29 06:21:02;;;;;;;10.05;4.95;;;;;;;26.30;45.46;100368.66;4993008;28;20038;-64
2021/07/29 06:23:28;;;;;;;10.95;5.13;;;;;;;26.43;46.33;100361.22;4991514;28;20042;-68
2021/07/29 06:25:53;;;;;;;19.77;5.28;;;;;;;26.47;44.21;100364.66;4993498;28;20146;-64
2021/07/29 06:28:18;;;;;;;12.57;4.82;;;;;;;26.58;42.03;100366.94;4993039;28;20030;-64
2021/07/29 06:30:44;;;;;;;9.77;3.95;;;;;;;26.82;41.89;100360.06;4993325;28;20029;-63
2021/07/29 06:33:10;;;;;;;8.38;4.53;;;;;;;26.92;41.42;100353.53;4993313;28;20041;-65
2021/07/29 06:35:35;;;;;;;9.55;5.00;;;;;;;27.11;42.49;100355.56;4993409;28;20026;-66
2021/07/29 06:38:01;;;;;;;10.55;4.10;;;;;;;27.01;42.21;100360.31;4993271;28;20089;-65
2021/07/29 06:40:26;;;;;;;9.02;4.80;;;;;;;26.88;43.55;100332.47;4993098;28;20548;-65
2021/07/29 06:42:51;;;;;;;9.80;4.63;;;;;;;27.08;43.44;100345.94;4992920;28;20480;-65
2021/07/29 06:45:17;;;;;;;13.32;5.50;;;;;;;27.10;42.74;100343.22;4992929;28;20753;-65
2021/07/29 06:47:42;;;;;;;10.68;4.32;;;;;;;26.97;42.20;100342.78;4993159;28;20027;-65
2021/07/29 06:50:08;;;;;;;16.70;5.50;;;;;;;27.01;41.38;100317.06;4992801;28;20038;-65
2021/07/29 06:52:34;;;;;;;11.43;4.60;;;;;;;27.37;41.51;100340.56;4992845;28;20026;-69
2021/07/29 06:54:59;;;;;;;13.20;4.88;;;;;;;27.39;41.29;100320.16;4992541;28;20054;-64
2021/07/29 06:57:25;;;;;;;12.05;5.38;;;;;;;27.51;41.21;100322.41;4992810;28;20449;-65
2021/07/29 06:59:50;;;;;;;14.90;4.93;;;;;;;27.37;40.37;100325.50;4992923;28;20022;-65
2021/07/29 08:58:30;;;;;;;7.88;2.70;;;;;;;32.02;26.86;100271.00;4987822;28;20052;-67
2021/07/29 09:01:00;;;;;;;8.57;3.25;;;;;;;32.21;26.58;100276.19;4995283;28;20125;-64
2021/07/29 09:03:26;;;;;;;8.77;3.30;;;;;;;32.30;26.31;100266.81;4995049;28;20068;-65
2021/07/29 09:06:00;;;;;;;10.40;3.25;;;;;;;32.41;25.90;100266.19;4994980;28;20030;-65
2021/07/29 09:08:51;;;;;;;8.75;3.33;;;;;;;32.56;23.98;100259.97;4994975;28;20061;-65
2021/07/29 09:11:29;;;;;;;7.38;3.05;;;;;;;32.67;25.67;100253.97;4994955;28;20023;-65
2021/07/29 09:14:09;;;;;;;10.07;3.47;;;;;;;32.87;26.98;100259.97;4994872;28;20035;-65
2021/07/29 09:16:53;;;;;;;8.57;3.50;;;;;;;32.85;26.49;100253.84;4994680;28;20031;-65
2021/07/29 09:19:38;;;;;;;10.50;3.33;;;;;;;32.90;28.01;100249.09;4994738;28;20038;-64
2021/07/29 09:22:18;;;;;;;15.93;3.05;;;;;;;32.97;25.93;100242.41;4994743;28;20551;-64
2021/07/29 09:25:05;;;;;;;7.53;3.28;;;;;;;33.21;25.13;100244.53;4994553;28;20044;-65
2021/07/29 09:27:39;;;;;;;7.85;3.13;;;;;;;33.29;25.37;100242.28;4994648;28;20093;-64
2021/07/29 09:30:25;;;;;;;8.80;3.25;;;;;;;33.35;29.64;100243.75;4994553;28;20038;-65
2021/07/29 09:32:59;;;;;;;7.57;3.35;;;;;;;33.43;25.68;100225.38;4994643;28;20022;-65
2021/07/29 09:35:43;;;;;;;10.52;3.50;;;;;;;33.64;25.24;100231.16;4994246;28;20462;-65
2021/07/29 09:38:31;;;;;;;9.50;3.38;;;;;;;33.31;26.36;100227.00;4994037;28;20037;-67
2021/07/29 09:41:01;;;;;;;8.55;3.28;;;;;;;33.57;25.25;100216.47;4994438;28;20045;-67
2021/07/29 09:43:35;;;;;;;;;;;;;;;33.81;24.83;100229.22;4995105;28;20061;-65
2021/07/29 09:46:04;;;;;;;4.18;2.83;;;;;;;34.11;24.94;100221.06;4994360;28;19914;-64
2021/07/29 09:48:30;;;;;;;6.90;3.30;;;;;;;34.11;24.81;100204.97;4994080;28;20026;-69
2021/07/29 09:50:59;;;;;;;9.27;3.10;;;;;;;34.13;23.66;100208.44;4994548;28;20493;-66
2021/07/29 09:53:30;;;;;;;16.10;3.17;;;;;;;34.11;23.99;100218.38;4994229;28;20027;-64
2021/07/29 09:55:55;;;;;;;12.90;4.00;;;;;;;34.14;24.03;100187.84;4994204;28;20034;-66
2021/07/29 09:58:21;;;;;;;5.78;3.40;;;;;;;34.57;22.75;100210.91;4993840;28;20417;-65
2021/07/29 10:00:47;;;;;;;10.23;2.88;;;;;;;34.54;22.58;100209.28;4993872;28;20103;-65
2021/07/29 10:03:14;;;;;;;7.88;3.15;;;;;;;34.68;22.17;100202.97;4992366;28;20104;-67
2021/07/29 10:06:00;;;;;;;9.65;3.42;;;;;;;34.61;22.73;100180.25;4993914;28;20026;-66
2021/07/29 10:08:36;;;;;;;9.93;3.30;;;;;;;34.87;23.06;100197.25;4993837;28;20023;-65
2021/07/29 10:11:06;;;;;;;8.82;3.58;;;;;;;34.94;22.39;100208.41;4993680;28;20097;-65
2021/07/29 10:13:40;;;;;;;4.85;3.05;;;;;;;35.12;22.43;100203.59;4993508;28;20034;-70
2021/07/29 10:16:08;;;;;;;7.78;3.53;;;;;;;35.11;22.47;100181.25;4993593;28;20493;-65
2021/07/29 10:18:51;;;;;;;8.50;3.00;;;;;;;35.25;22.05;100196.34;4993846;28;20069;-65
2021/07/29 10:21:26;;;;;;;4.78;3.00;;;;;;;35.41;22.21;100190.78;4993481;28;20030;-69
2021/07/29 10:24:01;;;;;;;6.05;3.30;;;;;;;35.47;23.16;100184.13;4993260;28;20109;-68
2021/07/29 10:26:33;;;;;;;8.23;3.38;;;;;;;35.77;23.37;100188.22;4993668;28;20033;-64
2021/07/29 10:29:25;;;;;;;6.00;3.03;;;;;;;35.92;22.20;100179.03;4992528;28;20062;-64
2021/07/29 10:31:54;;;;;;;12.07;4.07;;;;;;;36.04;22.64;100182.66;4952329;29;20094;-65
2021/07/29 10:34:38;;;;;;;11.77;3.95;;;;;;;35.93;22.86;100180.75;4952123;29;20065;-65
2021/07/29 10:37:08;;;;;;;11.57;3.72;;;;;;;36.05;23.09;100187.06;4952129;29;20055;-65
2021/07/29 10:39:57;;;;;;;10.00;3.78;;;;;;;36.39;22.31;100178.28;4952167;29;20458;-65
2021/07/29 10:42:29;;;;;;;7.80;3.50;;;;;;;36.55;22.14;100175.28;4942789;29;20067;-65
2021/07/29 10:44:56;;;;;;;10.10;3.80;;;;;;;36.53;21.61;100172.72;4935383;29;20035;-69
2021/07/29 10:47:39;;;;;;;7.93;3.45;;;;;;;36.58;23.80;100173.19;4942754;29;20068;-64
2021/07/29 10:50:06;;;;;;;9.70;3.70;;;;;;;36.63;22.17;100147.81;4943520;29;20046;-66
2021/07/29 10:52:33;;;;;;;9.60;3.78;;;;;;;36.83;21.33;100173.97;4940498;29;20397;-70
2021/07/29 10:55:00;;;;;;;6.93;3.97;;;;;;;36.86;21.52;100160.34;4942927;29;20039;-66
2021/07/29 10:57:26;;;;;;;7.78;3.35;;;;;;;36.71;21.79;100157.00;4942748;29;20402;-67
2021/07/29 10:59:52;;;;;;;11.88;3.90;;;;;;;36.86;21.81;100160.34;4942029;29;20027;-64
2021/07/29 11:02:33;;;;;;;11.15;3.70;;;;;;;37.02;21.34;100156.41;4941049;29;20043;-67
2021/07/29 11:05:00;;;;;;;10.13;3.78;;;;;;;36.66;21.36;100151.09;4940824;29;20038;-68
2021/07/29 11:07:28;;;;;;;9.52;3.88;;;;;;;36.95;22.11;100156.06;4943807;28;20040;-64
2021/07/29 11:10:09;;;;;;;9.82;4.00;;;;;;;36.81;21.89;100156.25;4990458;28;20026;-70
2021/07/29 11:12:37;;;;;;;9.55;3.88;;;;;;;37.16;21.46;100149.91;4991080;28;20505;-65
2021/07/29 11:15:04;;;;;;;11.67;4.50;;;;;;;37.02;23.22;100151.03;4992716;28;20508;-64
2021/07/29 11:17:29;;;;;;;7.25;4.18;;;;;;;37.16;25.98;100126.56;4992565;28;20076;-67
2021/07/29 11:19:55;;;;;;;12.63;4.35;;;;;;;37.35;21.00;100149.31;4992286;28;20038;-65
2021/07/29 11:22:20;;;;;;;9.15;3.38;;;;;;;37.51;21.93;100152.47;4991541;28;20018;-65
2021/07/29 11:24:46;;;;;;;9.55;3.70;;;;;;;37.53;21.93;100142.41;4992170;28;20034;-69
2021/07/29 11:27:13;;;;;;;13.05;3.60;;;;;;;37.82;21.94;100141.03;4983880;28;20049;-66
2021/07/29 11:30:05;;;;;;;12.30;4.32;;;;;;;38.01;20.96;100138.50;4992133;28;20404;-66
2021/07/29 11:32:41;;;;;;;11.85;4.28;;;;;;;37.86;21.46;100113.72;4947860;29;20124;-65
2021/07/29 11:35:14;;;;;;;12.05;3.90;;;;;;;38.13;20.99;100124.97;4943317;29;20526;-67
2021/07/29 11:37:46;;;;;;;7.65;3.95;;;;;;;38.19;20.31;100114.50;4947492;28;20101;-67
2021/07/29 11:40:23;;;;;;;6.75;4.18;;;;;;;38.20;20.65;100110.84;4947656;28;20035;-68
2021/07/29 11:42:49;;;;;;;10.93;4.35;;;;;;;38.24;20.81;100114.13;4949924;28;20568;-68
2021/07/29 11:45:32;;;;;;;10.02;4.07;;;;;;;37.87;24.85;100096.56;4946701;28;20046;-68
2021/07/29 11:48:00;;;;;;;10.60;4.20;;;;;;;38.26;23.71;100108.59;4949007;28;20039;-68
2021/07/29 11:50:35;;;;;;;15.10;4.85;;;;;;;38.33;21.09;100099.91;4949567;28;20493;-69
2021/07/29 11:53:00;;;;;;;16.58;4.22;;;;;;;38.61;21.84;100091.25;4949209;28;20028;-68
2021/07/29 11:55:27;;;;;;;10.35;4.40;;;;;;;38.79;20.59;100092.31;4902101;28;20094;-71
2021/07/29 11:57:52;;;;;;;9.63;4.47;;;;;;;38.88;21.24;100087.97;4949328;28;20475;-70
2021/07/29 12:00:36;;;;;;;10.40;4.50;;;;;;;38.86;21.80;100086.38;4949506;28;20035;-69
2021/07/29 12:03:04;;;;;;;10.25;4.57;;;;;;;38.75;20.83;100082.81;4949274;28;20044;-71
2021/07/29 12:05:31;;;;;;;14.25;4.93;;;;;;;38.67;21.19;100082.59;4949588;28;20035;-70
2021/07/29 12:07:57;;;;;;;12.68;5.18;;;;;;;38.59;23.73;100079.72;4949423;28;20047;-70
2021/07/29 12:10:29;;;;;;;13.07;5.22;;;;;;;38.66;20.14;100062.84;4971896;28;20806;-73
2021/07/29 12:12:55;;;;;;;12.00;4.72;;;;;;;38.78;20.51;100058.25;4973172;28;20034;-72
2021/07/29 12:15:21;;;;;;;14.57;5.18;;;;;;;39.01;19.89;100066.13;4974102;28;20033;-69
2021/07/29 12:17:47;;;;;;;12.10;4.80;;;;;;;39.11;21.05;100058.06;4972429;28;20023;-71
2021/07/29 12:20:14;;;;;;;10.10;4.95;;;;;;;39.08;20.19;100064.59;4972343;28;20084;-73
2021/07/29 12:22:42;;;;;;;11.60;4.75;;;;;;;39.26;19.00;100047.75;4971129;28;20030;-73
2021/07/29 12:25:25;;;;;;;10.50;4.88;;;;;;;39.35;20.49;100055.00;4972667;28;20023;-72
2021/07/29 12:27:55;;;;;;;16.48;5.30;;;;;;;39.60;20.33;100048.19;4973274;28;20497;-73
2021/07/29 12:30:43;;;;;;;14.90;5.28;;;;;;;39.67;20.21;100047.63;4974482;28;20033;-73
2021/07/29 12:33:19;;;;;;;16.38;5.00;;;;;;;39.55;21.03;100038.81;4972132;28;20109;-72
2021/07/29 12:35:58;;;;;;;15.80;5.43;;;;;;;39.66;20.79;100027.88;4972783;28;20046;-73
2021/07/29 12:38:36;;;;;;;15.27;4.60;;;;;;;39.68;20.54;100025.03;4971311;28;20034;-74
2021/07/29 12:41:03;;;;;;;16.10;4.80;;;;;;;39.91;20.76;100023.72;4971001;28;20033;-70
2021/07/29 12:43:30;;;;;;;13.65;4.97;;;;;;;39.73;20.15;100020.91;4973151;28;20052;-69
2021/07/29 12:45:57;;;;;;;12.13;4.82;;;;;;;39.74;19.15;99997.44;4979698;28;20113;-71
2021/07/29 12:48:24;;;;;;;9.43;4.57;;;;;;;39.78;19.49;100015.94;4955815;28;20035;-72
2021/07/29 12:50:50;;;;;;;12.93;5.10;;;;;;;39.92;18.54;100011.91;4990143;28;20146;-68
2021/07/29 12:53:16;;;;;;;13.25;5.28;;;;;;;39.78;18.47;100013.22;4964354;28;20444;-72
2021/07/29 12:55:43;;;;;;;12.90;4.60;;;;;;;39.85;19.59;100004.53;4990811;28;20027;-68
2021/07/29 12:58:10;;;;;;;17.67;5.20;;;;;;;39.99;20.44;100008.63;4976041;28;20444;-70
2021/07/29 13:00:37;;;;;;;14.40;4.50;;;;;;;39.68;19.22;100001.59;4974110;28;20042;-71
2021/07/29 13:03:03;;;;;;;12.35;4.45;;;;;;;39.42;19.19;100002.13;4974989;28;20489;-69
2021/07/29 13:05:28;;;;;;;11.70;4.60;;;;;;;39.40;19.00;99971.72;4974313;28;20026;-71
2021/07/29 13:07:55;;;;;;;13.25;5.30;;;;;;;39.44;19.50;99980.38;4976592;28;20081;-72
2021/07/29 13:10:21;;;;;;;10.25;4.82;;;;;;;39.77;18.67;99992.59;4976721;28;20026;-70
2021/07/29 13:12:47;;;;;;;15.60;5.25;;;;;;;39.82;19.38;99994.88;4976672;28;20492;-71
2021/07/29 13:15:13;;;;;;;14.18;5.07;;;;;;;39.88;18.65;99985.31;4977261;28;20031;-71
2021/07/29 13:17:39;;;;;;;12.15;5.35;;;;;;;39.96;18.89;99980.03;4975540;28;20056;-72
2021/07/29 13:20:05;;;;;;;9.57;4.93;;;;;;;40.19;18.39;99982.41;4976050;28;20027;-70
2021/07/29 13:22:31;;;;;;;14.75;4.93;;;;;;;40.06;18.69;99961.94;4974607;28;20015;-70
2021/07/29 13:24:58;;;;;;;11.63;4.70;;;;;;;39.87;18.33;99972.84;4974044;28;20069;-69